Time;durP1;ratioP1;P1;durP2;ratioP2;P2;SDS_P1;SDS_P2;PMS_P1;PMS_P2;Temp;Humidity;BMP_temperature;BMP_pressure;BME280_temperature;BME280_humidity;BME280_pressure;Samples;Min_cycle;Max_cycle;Signal;HPM_P1;HPM_P2
2023/01/17 00:01:05;;;;;;;;;;;5.20;99.90;;;;;;5031611;28;19928;-72
2023/01/17 00:03:31;;;;;;;;;;;3.30;99.90;;;;;;5031206;28;19970;-72
2023/01/17 00:11:25;;;;;;;;;;;4.70;99.90;;;;;;5028554;28;20000;-72
2023/01/17 00:13:50;;;;;;;;;;;3.30;99.90;;;;;;5031013;28;19927;-72
2023/01/17 00:16:16;;;;;;;;;;;4.50;99.90;;;;;;5031375;28;19932;-72
2023/01/17 00:26:01;;;;;;;;;;;3.30;99.90;;;;;;5030165;28;19971;-72
2023/01/17 01:35:59;;;;;;;;;;;4.60;99.90;;;;;;5014725;28;19966;-72
2023/01/17 01:38:25;;;;;;;;;;;4.50;99.90;;;;;;5033528;28;19967;-72
2023/01/17 01:40:54;;;;;;;;;;;4.30;99.90;;;;;;5033480;28;19956;-72
2023/01/17 01:43:37;;;;;;;;;;;4.90;99.90;;;;;;5032914;28;19943;-72
2023/01/17 01:46:03;;;;;;;;;;;3.10;99.90;;;;;;5033035;28;20644;-71
2023/01/17 01:48:50;;;;;;;;;;;3.00;99.90;;;;;;5033395;28;20000;-73
2023/01/17 01:51:18;;;;;;;;;;;3.00;99.90;;;;;;5029578;28;19922;-72
2023/01/17 01:53:45;;;;;;;;;;;2.90;99.90;;;;;;5033346;28;19920;-72
2023/01/17 01:56:12;;;;;;;;;;;4.20;99.90;;;;;;5032804;28;19929;-72
2023/01/17 01:58:38;;;;;;;;;;;3.30;99.90;;;;;;5028526;28;19925;-71
2023/01/17 02:01:05;;;;;;;;;;;3.00;99.90;;;;;;5033315;28;19925;-72
2023/01/17 02:03:31;;;;;;;;;;;3.00;99.90;;;;;;5032449;28;19929;-72
2023/01/17 02:06:06;;;;;;;;;;;2.90;99.90;;;;;;5033054;28;19921;-72
2023/01/17 02:08:32;;;;;;;;;;;2.70;99.90;;;;;;5032630;28;19921;-72
2023/01/17 02:10:57;;;;;;;;;;;4.20;99.90;;;;;;5014533;28;20012;-72
2023/01/17 02:13:23;;;;;;;;;;;2.80;99.90;;;;;;5032433;28;19921;-72
2023/01/17 02:15:58;;;;;;;;;;;2.80;99.90;;;;;;5033182;28;20352;-72
2023/01/17 02:18:32;;;;;;;;;;;2.80;99.90;;;;;;5031868;28;19917;-72
2023/01/17 02:21:06;;;;;;;;;;;2.80;99.90;;;;;;5033235;28;19929;-73
2023/01/17 02:23:44;;;;;;;;;;;2.80;99.90;;;;;;5032049;28;19920;-72
2023/01/17 02:26:29;;;;;;;;;;;2.80;99.90;;;;;;5028956;28;20390;-72
2023/01/17 02:29:05;;;;;;;;;;;2.80;99.90;;;;;;5032726;28;20261;-72
2023/01/17 02:31:36;;;;;;;;;;;2.80;99.90;;;;;;5014054;28;19964;-73
2023/01/17 02:34:07;;;;;;;;;;;2.90;99.90;;;;;;5028912;28;19974;-72
2023/01/17 02:36:35;;;;;;;;;;;2.90;99.90;;;;;;5028939;28;19917;-72
2023/01/17 02:39:21;;;;;;;;;;;2.90;99.90;;;;;;5029839;28;20364;-72
2023/01/17 02:41:50;;;;;;;;;;;2.90;99.90;;;;;;5030459;28;19917;-72
2023/01/17 02:44:17;;;;;;;;;;;4.60;99.90;;;;;;5014669;28;19921;-72
2023/01/17 02:46:47;;;;;;;;;;;3.00;99.90;;;;;;5031263;28;19921;-72
2023/01/17 02:49:13;;;;;;;;;;;3.00;99.90;;;;;;5032189;28;20316;-72
2023/01/17 02:51:58;;;;;;;;;;;3.10;99.90;;;;;;5014677;28;19928;-72
2023/01/17 02:54:27;;;;;;;;;;;3.10;99.90;;;;;;5031196;28;19925;-72
2023/01/17 02:57:10;;;;;;;;;;;3.20;99.90;;;;;;5031970;28;19921;-72
2023/01/17 02:59:41;;;;;;;;;;;3.20;99.90;;;;;;5029265;28;19921;-72
2023/01/17 03:02:07;;;;;;;;;;;3.10;99.90;;;;;;5032195;28;20297;-72
2023/01/17 03:04:48;;;;;;;;;;;3.10;99.90;;;;;;5031935;28;19927;-72
2023/01/17 03:07:16;;;;;;;;;;;3.10;99.90;;;;;;5030605;28;19928;-72
2023/01/17 03:09:44;;;;;;;;;;;3.00;99.90;;;;;;5031165;28;19921;-72
2023/01/17 03:12:10;;;;;;;;;;;3.20;99.90;;;;;;5031988;28;19928;-72
2023/01/17 03:14:36;;;;;;;;;;;3.00;99.90;;;;;;5030427;28;20007;-72
2023/01/17 03:17:01;;;;;;;;;;;3.20;99.90;;;;;;5014012;28;19921;-72
2023/01/17 03:19:27;;;;;;;;;;;4.20;99.90;;;;;;5014278;28;19931;-72
2023/01/17 03:21:52;;;;;;;;;;;3.30;99.90;;;;;;5009215;28;20373;-72
2023/01/17 03:24:18;;;;;;;;;;;6.20;99.90;;;;;;5031163;28;19921;-72
2023/01/17 03:26:43;;;;;;;;;;;3.10;99.90;;;;;;5014010;28;19924;-73
2023/01/17 03:29:10;;;;;;;;;;;3.00;99.90;;;;;;5013016;28;19927;-72
2023/01/17 03:31:38;;;;;;;;;;;3.00;99.90;;;;;;5031477;28;20067;-72
2023/01/17 03:34:04;;;;;;;;;;;2.90;99.90;;;;;;5014362;28;19948;-73
2023/01/17 03:36:29;;;;;;;;;;;2.90;99.90;;;;;;5013055;28;19971;-73
2023/01/17 03:38:55;;;;;;;;;;;2.90;99.90;;;;;;5013574;28;19921;-73
2023/01/17 03:41:20;;;;;;;;;;;2.80;99.90;;;;;;5031718;28;19921;-72
2023/01/17 03:43:46;;;;;;;;;;;2.70;99.90;;;;;;5031074;28;19921;-72
2023/01/17 03:46:24;;;;;;;;;;;3.70;99.90;;;;;;5031530;28;19925;-72
2023/01/17 03:48:50;;;;;;;;;;;2.70;99.90;;;;;;5027577;28;19920;-73
2023/01/17 03:51:16;;;;;;;;;;;3.70;99.90;;;;;;5030439;28;20388;-73
2023/01/17 03:53:42;;;;;;;;;;;2.70;99.90;;;;;;5031644;28;20015;-72
2023/01/17 03:56:08;;;;;;;;;;;2.80;99.90;;;;;;5030903;28;19932;-73
2023/01/17 03:58:33;;;;;;;;;;;2.70;99.90;;;;;;5031024;28;19928;-73
2023/01/17 04:00:59;;;;;;;;;;;2.70;99.90;;;;;;5031573;28;19921;-73
2023/01/17 04:03:24;;;;;;;;;;;2.70;99.90;;;;;;5030479;28;19972;-73
2023/01/17 04:05:50;;;;;;;;;;;3.60;99.90;;;;;;5013333;28;19992;-72
2023/01/17 04:08:16;;;;;;;;;;;4.30;99.90;;;;;;5031370;28;19921;-73
2023/01/17 04:10:41;;;;;;;;;;;3.80;99.90;;;;;;5012287;28;19921;-72
2023/01/17 04:13:07;;;;;;;;;;;3.90;99.90;;;;;;5031466;28;19932;-73
2023/01/17 04:15:32;;;;;;;;;;;2.20;99.90;;;;;;5031418;28;19982;-73
2023/01/17 04:17:58;;;;;;;;;;;2.20;99.90;;;;;;5030380;28;20386;-73
2023/01/17 04:20:29;;;;;;;;;;;2.10;99.90;;;;;;5014096;28;19928;-73
2023/01/17 04:22:55;;;;;;;;;;;2.10;99.90;;;;;;5035261;28;19921;-72
2023/01/17 04:25:20;;;;;;;;;;;2.00;99.90;;;;;;5034090;28;19921;-72
2023/01/17 04:27:46;;;;;;;;;;;1.90;99.90;;;;;;5016915;28;19921;-72
2023/01/17 04:30:11;;;;;;;;;;;1.90;99.90;;;;;;5017779;28;19924;-73
2023/01/17 04:32:37;;;;;;;;;;;1.90;99.90;;;;;;5033990;28;19928;-73
2023/01/17 04:35:03;;;;;;;;;;;3.20;99.90;;;;;;5034546;28;19921;-72
2023/01/17 04:37:29;;;;;;;;;;;2.00;99.90;;;;;;5034330;28;19917;-73
2023/01/17 04:39:54;;;;;;;;;;;2.00;99.90;;;;;;5033981;28;19921;-72
2023/01/17 04:42:20;;;;;;;;;;;2.00;99.90;;;;;;5034791;28;19920;-72
2023/01/17 04:44:45;;;;;;;;;;;2.10;99.90;;;;;;5034099;28;20058;-72
2023/01/17 04:47:11;;;;;;;;;;;2.10;99.90;;;;;;5033918;28;19967;-72
2023/01/17 04:49:36;;;;;;;;;;;2.20;99.90;;;;;;5034195;28;20019;-72
2023/01/17 04:52:02;;;;;;;;;;;2.20;99.90;;;;;;5034698;28;19920;-72
2023/01/17 04:54:27;;;;;;;;;;;2.30;99.90;;;;;;5033542;28;20320;-72
2023/01/17 04:56:53;;;;;;;;;;;2.20;99.90;;;;;;5034675;28;20323;-72
2023/01/17 04:59:18;;;;;;;;;;;2.10;99.90;;;;;;5033677;28;19917;-72
2023/01/17 05:01:46;;;;;;;;;;;2.10;99.90;;;;;;5034571;28;19921;-72
2023/01/17 05:04:11;;;;;;;;;;;2.10;99.90;;;;;;5033722;28;19925;-72
2023/01/17 05:06:37;;;;;;;;;;;2.10;99.90;;;;;;5033665;28;19925;-72
2023/01/17 05:09:03;;;;;;;;;;;3.70;99.90;;;;;;5034360;28;19928;-72
2023/01/17 05:11:28;;;;;;;;;;;2.00;99.90;;;;;;5016887;28;20296;-73
2023/01/17 05:13:54;;;;;;;;;;;3.50;99.90;;;;;;5033282;28;20392;-72
2023/01/17 05:16:19;;;;;;;;;;;2.00;99.90;;;;;;5033635;28;19928;-72
2023/01/17 05:18:45;;;;;;;;;;;5.00;99.90;;;;;;5015955;28;20343;-72
2023/01/17 05:21:10;;;;;;;;;;;2.00;99.90;;;;;;5019407;28;19921;-73
2023/01/17 05:23:36;;;;;;;;;;;2.00;99.90;;;;;;5033574;28;19983;-72
2023/01/17 05:26:02;;;;;;;;;;;2.00;99.90;;;;;;5028528;28;19964;-72
2023/01/17 05:28:27;;;;;;;;;;;2.10;99.90;;;;;;5028702;28;19932;-72
2023/01/17 05:30:53;;;;;;;;;;;3.60;99.90;;;;;;5033601;28;19917;-71
2023/01/17 05:33:18;;;;;;;;;;;2.10;99.90;;;;;;5032906;28;19921;-71
2023/01/17 05:35:44;;;;;;;;;;;3.70;99.90;;;;;;5032851;28;20253;-71
2023/01/17 05:38:09;;;;;;;;;;;3.10;99.90;;;;;;5029992;28;20395;-71
2023/01/17 05:40:35;;;;;;;;;;;2.10;99.90;;;;;;5024431;28;19921;-72
2023/01/17 05:43:02;;;;;;;;;;;2.10;99.90;;;;;;5011523;28;19921;-71
2023/01/17 05:45:28;;;;;;;;;;;2.10;99.90;;;;;;5031479;28;19928;-71
2023/01/17 05:47:54;;;;;;;;;;;2.10;99.90;;;;;;5032769;28;19921;-71
2023/01/17 05:50:23;;;;;;;;;;;1.90;99.90;;;;;;5032441;28;19943;-71
2023/01/17 05:52:50;;;;;;;;;;;2.10;99.90;;;;;;5033242;28;20288;-71
2023/01/17 05:55:15;;;;;;;;;;;2.10;99.90;;;;;;5035320;28;19920;-70
2023/01/17 05:57:41;;;;;;;;;;;2.00;99.90;;;;;;5032446;28;19920;-71
2023/01/17 06:00:06;;;;;;;;;;;2.00;99.90;;;;;;5015512;28;20011;-72
2023/01/17 06:02:32;;;;;;;;;;;1.90;99.90;;;;;;5014429;28;19927;-70
2023/01/17 06:04:57;;;;;;;;;;;1.90;99.90;;;;;;5033611;28;19932;-70
2023/01/17 06:07:23;;;;;;;;;;;1.90;99.90;;;;;;5033144;28;19924;-70
2023/01/17 06:09:48;;;;;;;;;;;1.90;99.90;;;;;;5029694;28;19929;-70
2023/01/17 06:12:14;;;;;;;;;;;1.80;99.90;;;;;;5030371;28;20328;-71
2023/01/17 06:14:39;;;;;;;;;;;1.90;99.90;;;;;;5032908;28;20288;-70
2023/01/17 06:17:05;;;;;;;;;;;1.60;99.90;;;;;;5032558;28;19927;-70
2023/01/17 06:19:31;;;;;;;;;;;1.90;99.90;;;;;;5033052;28;19924;-71
2023/01/17 06:21:56;;;;;;;;;;;1.90;99.90;;;;;;5033116;28;19967;-71
2023/01/17 06:24:22;;;;;;;;;;;1.80;99.90;;;;;;5014475;28;19996;-79
2023/01/17 06:26:47;;;;;;;;;;;1.80;99.90;;;;;;5032873;28;19976;-77
2023/01/17 06:29:13;;;;;;;;;;;3.40;99.90;;;;;;5015780;28;19925;-73
2023/01/17 06:31:38;;;;;;;;;;;1.80;99.90;;;;;;5031708;28;19921;-71
2023/01/17 06:34:04;;;;;;;;;;;1.80;99.90;;;;;;5015546;28;19974;-72
2023/01/17 06:36:31;;;;;;;;;;;1.80;99.90;;;;;;5032023;28;19925;-73
2023/01/17 06:38:56;;;;;;;;;;;1.70;99.90;;;;;;5032266;28;19967;-77
2023/01/17 06:41:22;;;;;;;;;;;1.70;99.90;;;;;;5032735;28;19925;-71
2023/01/17 06:43:48;;;;;;;;;;;1.80;99.90;;;;;;5013874;28;20008;-71
2023/01/17 06:46:13;;;;;;;;;;;3.30;99.90;;;;;;5026515;28;19929;-71
2023/01/17 06:48:42;;;;;;;;;;;1.30;99.90;;;;;;5032601;28;20003;-74
2023/01/17 06:51:08;;;;;;;;;;;1.90;99.90;;;;;;5032842;28;19925;-77
2023/01/17 06:53:33;;;;;;;;;;;4.00;99.90;;;;;;5013959;28;19947;-71
2023/01/17 06:55:59;;;;;;;;;;;1.80;99.90;;;;;;5027233;28;19925;-73
2023/01/17 06:58:24;;;;;;;;;;;1.80;99.90;;;;;;5029708;28;19921;-74
2023/01/17 07:00:50;;;;;;;;;;;1.70;99.90;;;;;;5027222;28;19927;-72
2023/01/17 07:03:23;;;;;;;;;;;1.70;99.90;;;;;;5030644;28;19928;-76
2023/01/17 07:05:49;;;;;;;;;;;1.80;99.90;;;;;;5026580;28;19921;-74
2023/01/17 07:08:15;;;;;;;;;;;-0.50;99.90;;;;;;5014010;28;19944;-71
2023/01/17 07:10:44;;;;;;;;;;;1.70;99.90;;;;;;5032040;28;19974;-77
2023/01/17 07:13:10;;;;;;;;;;;2.90;99.90;;;;;;5030595;28;20772;-78
2023/01/17 07:15:36;;;;;;;;;;;3.40;99.90;;;;;;5027166;28;19924;-78
2023/01/17 07:18:02;;;;;;;;;;;1.80;99.90;;;;;;5032002;28;19921;-78
2023/01/17 07:20:28;;;;;;;;;;;1.80;99.90;;;;;;5030664;28;19971;-76
2023/01/17 07:22:53;;;;;;;;;;;4.10;99.90;;;;;;5032069;28;19921;-73
2023/01/17 07:25:19;;;;;;;;;;;1.70;99.90;;;;;;5028213;28;20379;-74
2023/01/17 07:27:45;;;;;;;;;;;3.20;99.90;;;;;;5029338;28;19975;-72
2023/01/17 07:30:13;;;;;;;;;;;3.50;99.90;;;;;;5028210;28;19927;-74
2023/01/17 07:32:39;;;;;;;;;;;1.60;99.90;;;;;;5011024;28;19928;-70
2023/01/17 07:35:06;;;;;;;;;;;1.60;99.90;;;;;;5029229;28;20304;-72
2023/01/17 07:37:31;;;;;;;;;;;1.70;99.90;;;;;;5011609;28;19986;-68
2023/01/17 07:39:57;;;;;;;;;;;1.60;99.90;;;;;;5028078;28;20388;-68
2023/01/17 07:42:22;;;;;;;;;;;1.60;99.90;;;;;;5028342;28;19921;-68
2023/01/17 07:44:48;;;;;;;;;;;1.60;99.90;;;;;;5031483;28;19928;-69
2023/01/17 07:47:13;;;;;;;;;;;1.50;99.90;;;;;;5011234;28;19921;-69
2023/01/17 07:49:39;;;;;;;;;;;1.60;99.90;;;;;;5030691;28;20391;-69
2023/01/17 07:52:05;;;;;;;;;;;1.50;99.90;;;;;;5030977;28;19920;-69
2023/01/17 07:54:31;;;;;;;;;;;3.70;99.90;;;;;;5013533;28;19925;-69
2023/01/17 07:56:56;;;;;;;;;;;1.50;99.90;;;;;;5034666;28;19921;-69
2023/01/17 07:59:22;;;;;;;;;;;1.40;99.90;;;;;;5030617;28;19925;-69
2023/01/17 08:01:47;;;;;;;;;;;1.40;99.90;;;;;;5030677;28;19925;-69
2023/01/17 08:04:13;;;;;;;;;;;1.40;99.90;;;;;;5013568;28;19975;-69
2023/01/17 08:06:40;;;;;;;;;;;1.40;99.90;;;;;;5035605;28;19921;-70
2023/01/17 08:09:09;;;;;;;;;;;1.40;99.90;;;;;;5005682;28;19937;-69
2023/01/17 08:11:35;;;;;;;;;;;1.40;99.90;;;;;;5026550;28;19959;-69
2023/01/17 08:14:00;;;;;;;;;;;1.50;99.90;;;;;;5035004;28;19976;-69
2023/01/17 08:16:27;;;;;;;;;;;1.50;99.90;;;;;;5030444;28;20000;-69
2023/01/17 08:18:53;;;;;;;;;;;3.40;99.90;;;;;;5017891;28;19920;-69
2023/01/17 08:21:19;;;;;;;;;;;1.60;99.90;;;;;;5034816;28;19944;-69
2023/01/17 08:23:48;;;;;;;;;;;1.60;99.90;;;;;;5030625;28;20371;-70
2023/01/17 08:26:20;;;;;;;;;;;1.70;99.90;;;;;;5034414;28;19921;-70
2023/01/17 08:28:53;;;;;;;;;;;1.80;99.90;;;;;;5035292;28;19921;-69
2023/01/17 08:31:19;;;;;;;;;;;2.00;99.90;;;;;;5033910;28;19987;-70
2023/01/17 08:33:45;;;;;;;;;;;2.20;99.90;;;;;;5017363;28;19952;-69
2023/01/17 08:36:10;;;;;;;;;;;2.30;99.90;;;;;;5035099;28;19952;-70
2023/01/17 08:38:36;;;;;;;;;;;2.30;99.90;;;;;;5016334;28;19921;-69
2023/01/17 08:41:01;;;;;;;;;;;2.50;99.90;;;;;;5034860;28;19921;-70
2023/01/17 08:43:27;;;;;;;;;;;2.80;99.90;;;;;;5034576;28;19932;-70
2023/01/17 08:45:54;;;;;;;;;;;3.20;99.90;;;;;;5034438;28;19928;-71
2023/01/17 08:48:21;;;;;;;;;;;4.50;99.90;;;;;;5034014;28;20287;-72
2023/01/17 08:50:47;;;;;;;;;;;6.30;99.90;;;;;;5035113;28;20329;-72
2023/01/17 08:53:12;;;;;;;;;;;6.70;99.90;;;;;;5014919;28;20019;-70
2023/01/17 08:55:39;;;;;;;;;;;7.10;99.90;;;;;;5034604;28;20257;-69
2023/01/17 08:58:05;;;;;;;;;;;7.20;99.90;;;;;;5034343;28;19921;-70
2023/01/17 09:00:31;;;;;;;;;;;7.40;99.90;;;;;;5033763;28;20451;-70
2023/01/17 09:02:57;;;;;;;;;;;7.30;99.90;;;;;;5016909;28;20052;-70
2023/01/17 09:05:22;;;;;;;;;;;7.40;99.90;;;;;;5033672;28;19921;-69
2023/01/17 09:07:48;;;;;;;;;;;8.40;99.90;;;;;;5033233;28;19929;-69
2023/01/17 09:10:13;;;;;;;;;;;6.20;99.90;;;;;;5034316;28;19925;-69
2023/01/17 09:12:39;;;;;;;;;;;6.00;99.90;;;;;;5033919;28;19921;-70
2023/01/17 09:15:05;;;;;;;;;;;7.50;99.90;;;;;;5016575;28;19927;-70
2023/01/17 09:17:30;;;;;;;;;;;7.80;99.90;;;;;;5033753;28;20408;-71
2023/01/17 09:19:58;;;;;;;;;;;9.50;99.90;;;;;;5033690;28;19920;-71
2023/01/17 09:22:24;;;;;;;;;;;10.50;99.90;;;;;;5029941;28;19921;-71
2023/01/17 09:24:49;;;;;;;;;;;11.60;99.90;;;;;;5016188;28;19987;-71
2023/01/17 09:27:15;;;;;;;;;;;12.70;99.90;;;;;;5028802;28;19924;-72
2023/01/17 09:29:41;;;;;;;;;;;13.50;99.80;;;;;;5016687;28;19921;-72
2023/01/17 09:32:07;;;;;;;;;;;14.10;98.50;;;;;;5033924;28;19921;-71
2023/01/17 09:34:32;;;;;;;;;;;14.60;95.80;;;;;;5015254;28;19921;-71
2023/01/17 09:36:58;;;;;;;;;;;14.90;95.00;;;;;;5015946;28;19925;-72
2023/01/17 09:39:23;;;;;;;;;;;15.40;95.20;;;;;;5032865;28;20699;-72
2023/01/17 09:41:53;;;;;;;;;;;15.90;93.50;;;;;;5033099;28;19928;-72
2023/01/17 09:44:26;;;;;;;;;;;16.00;95.90;;;;;;5029537;28;19974;-72
2023/01/17 09:46:54;;;;;;;;;;;15.20;91.40;;;;;;5030388;28;19921;-72
2023/01/17 09:49:32;;;;;;;;;;;15.80;91.80;;;;;;5011130;28;20399;-71
2023/01/17 09:51:57;;;;;;;;;;;16.30;91.30;;;;;;5031025;28;20413;-72
2023/01/17 09:54:26;;;;;;;;;;;16.30;91.80;;;;;;5033150;28;20017;-72
2023/01/17 09:57:11;;;;;;;;;;;16.70;91.60;;;;;;5032923;28;19921;-72
2023/01/17 09:59:49;;;;;;;;;;;17.00;90.60;;;;;;5032288;28;19974;-70
2023/01/17 10:02:38;;;;;;;;;;;17.40;88.00;;;;;;5011112;28;19978;-72
2023/01/17 10:05:13;;;;;;;;;;;17.40;84.30;;;;;;5003686;28;19921;-69
2023/01/17 10:07:57;;;;;;;;;;;17.60;84.80;;;;;;5015046;28;19925;-70
2023/01/17 10:10:32;;;;;;;;;;;17.70;87.50;;;;;;5011426;28;19921;-70
2023/01/17 10:13:07;;;;;;;;;;;17.70;86.20;;;;;;5015635;28;19925;-72
2023/01/17 10:15:48;;;;;;;;;;;18.10;86.60;;;;;;5015709;28;20406;-73
2023/01/17 10:18:33;;;;;;;;;;;18.30;86.60;;;;;;5012573;28;20423;-79
2023/01/17 10:21:09;;;;;;;;;;;18.50;84.20;;;;;;5031210;28;19928;-78
2023/01/17 10:23:41;;;;;;;;;;;19.20;83.20;;;;;;5014300;28;19967;-74
2023/01/17 10:26:14;;;;;;;;;;;20.30;79.70;;;;;;5015084;28;19936;-77
2023/01/17 10:28:45;;;;;;;;;;;19.40;81.70;;;;;;5032601;28;19920;-77
2023/01/17 10:31:17;;;;;;;;;;;19.40;81.10;;;;;;5032285;28;20356;-75
2023/01/17 10:33:53;;;;;;;;;;;19.40;79.10;;;;;;5011473;28;19932;-75
2023/01/17 10:36:23;;;;;;;;;;;19.00;78.80;;;;;;5029690;28;19970;-75
2023/01/17 10:38:53;;;;;;;;;;;19.40;79.80;;;;;;5028704;28;19921;-76
2023/01/17 10:41:28;;;;;;;;;;;19.20;76.90;;;;;;5030697;28;19917;-77
2023/01/17 10:44:00;;;;;;;;;;;19.10;75.10;;;;;;5028961;28;19921;-77
2023/01/17 10:46:42;;;;;;;;;;;18.50;76.20;;;;;;5010945;28;20383;-76
2023/01/17 10:49:15;;;;;;;;;;;18.10;75.20;;;;;;5032600;28;20435;-77
2023/01/17 10:51:48;;;;;;;;;;;18.20;73.10;;;;;;5010743;28;19917;-76
2023/01/17 10:54:31;;;;;;;;;;;17.00;75.60;;;;;;5028805;28;19921;-75
2023/01/17 10:56:57;;;;;;;;;;;14.90;77.40;;;;;;5014232;28;19974;-74
2023/01/17 10:59:42;;;;;;;;;;;12.30;82.90;;;;;;5013685;28;19925;-76
2023/01/17 11:02:16;;;;;;;;;;;12.20;85.40;;;;;;5028007;28;19967;-75
2023/01/17 11:04:42;;;;;;;;;;;12.90;85.30;;;;;;5030902;28;19921;-75
2023/01/17 11:07:21;;;;;;;;;;;13.50;85.60;;;;;;5031600;28;19931;-75
2023/01/17 11:09:48;;;;;;;;;;;14.60;88.10;;;;;;5029678;28;20302;-74
2023/01/17 11:12:26;;;;;;;;;;;15.80;82.30;;;;;;5013257;28;19917;-72
2023/01/17 11:15:04;;;;;;;;;;;16.80;81.40;;;;;;5014184;28;19975;-73
2023/01/17 11:17:29;;;;;;;;;;;17.20;79.10;;;;;;5014037;28;19952;-77
2023/01/17 11:20:15;;;;;;;;;;;17.00;77.70;;;;;;5031195;28;19983;-75
2023/01/17 11:22:44;;;;;;;;;;;16.90;77.60;;;;;;5007618;28;19959;-76
2023/01/17 11:25:18;;;;;;;;;;;16.50;78.00;;;;;;5029226;28;20288;-74
2023/01/17 11:27:55;;;;;;;;;;;17.00;78.60;;;;;;5011682;28;19921;-74
2023/01/17 11:30:24;;;;;;;;;;;17.20;78.60;;;;;;5012535;28;19970;-75
2023/01/17 11:33:05;;;;;;;;;;;16.20;76.40;;;;;;5031887;28;19917;-75
2023/01/17 11:35:32;;;;;;;;;;;16.40;77.20;;;;;;5013692;28;20007;-75
2023/01/17 11:38:00;;;;;;;;;;;16.40;77.90;;;;;;5013983;28;20016;-75
2023/01/17 11:40:27;;;;;;;;;;;16.60;77.70;;;;;;5031036;28;19925;-74
2023/01/17 11:43:02;;;;;;;;;;;15.80;78.70;;;;;;5031857;28;19920;-74
2023/01/17 11:45:29;;;;;;;;;;;15.80;77.00;;;;;;5031615;28;19925;-75
2023/01/17 11:48:06;;;;;;;;;;;16.20;79.80;;;;;;5026563;28;19925;-75
2023/01/17 11:50:33;;;;;;;;;;;16.10;77.90;;;;;;5027668;28;19921;-75
2023/01/17 11:53:21;;;;;;;;;;;16.40;78.10;;;;;;5011330;28;19990;-74
2023/01/17 11:56:02;;;;;;;;;;;16.40;76.30;;;;;;5011914;28;19921;-75
2023/01/17 11:58:28;;;;;;;;;;;16.80;76.60;;;;;;5029483;28;19921;-74
2023/01/17 12:00:57;;;;;;;;;;;16.40;76.00;;;;;;5031216;28;19927;-74
2023/01/17 12:03:43;;;;;;;;;;;17.20;74.70;;;;;;5030809;28;19917;-74
2023/01/17 12:06:11;;;;;;;;;;;15.80;74.20;;;;;;5029084;28;19920;-74
2023/01/17 12:08:44;;;;;;;;;;;15.70;75.00;;;;;;5026529;28;19925;-74
2023/01/17 12:11:27;;;;;;;;;;;15.70;75.70;;;;;;5014140;28;19927;-75
2023/01/17 12:14:02;;;;;;;;;;;16.00;78.50;;;;;;5013396;28;20285;-74
2023/01/17 12:16:46;;;;;;;;;;;16.50;80.30;;;;;;5023029;28;20388;-75
2023/01/17 12:19:31;;;;;;;;;;;16.00;78.20;;;;;;5031508;28;19921;-74
2023/01/17 12:22:10;;;;;;;;;;;15.50;76.70;;;;;;5030841;28;19925;-74
2023/01/17 12:24:43;;;;;;;;;;;16.00;75.20;;;;;;5010586;28;20373;-75
2023/01/17 12:27:18;;;;;;;;;;;15.90;76.00;;;;;;5013864;28;19948;-74
2023/01/17 12:30:01;;;;;;;;;;;15.80;76.40;;;;;;5030140;28;19925;-74
2023/01/17 12:32:36;;;;;;;;;;;15.20;77.70;;;;;;5027661;28;20319;-74
2023/01/17 12:35:22;;;;;;;;;;;14.80;78.60;;;;;;5031503;28;19925;-73
2023/01/17 12:37:50;;;;;;;;;;;13.60;79.80;;;;;;5029219;28;19928;-73
2023/01/17 12:40:22;;;;;;;;;;;11.80;83.60;;;;;;5031322;28;19966;-73
2023/01/17 12:43:00;;;;;;;;;;;10.70;86.10;;;;;;5015927;28;19971;-72
2023/01/17 12:45:32;;;;;;;;;;;10.10;89.20;;;;;;5030786;28;20357;-73
2023/01/17 12:48:01;;;;;;;;;;;10.30;88.50;;;;;;5033970;28;19921;-74
2023/01/17 12:50:53;;;;;;;;;;;11.80;86.30;;;;;;5029603;28;19921;-74
2023/01/17 12:53:24;;;;;;;;;;;11.90;85.40;;;;;;5028374;28;19971;-75
2023/01/17 12:56:15;;;;;;;;;;;13.00;82.40;;;;;;5033777;28;19927;-75
2023/01/17 12:58:43;;;;;;;;;;;13.80;80.00;;;;;;5031987;28;20295;-78
2023/01/17 13:01:18;;;;;;;;;;;13.90;77.70;;;;;;5033741;28;20368;-76
2023/01/17 13:03:53;;;;;;;;;;;14.00;78.00;;;;;;5033307;28;19960;-77
2023/01/17 13:06:31;;;;;;;;;;;13.90;79.50;;;;;;5033316;28;20020;-73
2023/01/17 13:08:59;;;;;;;;;;;13.80;76.70;;;;;;5033149;28;19921;-77
2023/01/17 13:11:27;;;;;;;;;;;13.70;77.70;;;;;;5014564;28;19917;-73
2023/01/17 13:13:56;;;;;;;;;;;13.60;79.70;;;;;;5033511;28;20007;-74
2023/01/17 13:16:27;;;;;;;;;;;13.00;79.40;;;;;;5033555;28;20003;-71
2023/01/17 13:18:54;;;;;;;;;;;11.80;82.40;;;;;;5015412;28;19932;-71
2023/01/17 13:21:33;;;;;;;;;;;11.90;82.00;;;;;;5032963;28;20288;-74
2023/01/17 13:24:00;;;;;;;;;;;12.10;81.60;;;;;;5034229;28;19929;-74
2023/01/17 13:26:38;;;;;;;;;;;12.10;82.10;;;;;;5014937;28;19960;-74
2023/01/17 13:29:08;;;;;;;;;;;12.10;82.30;;;;;;5033670;28;20273;-73
2023/01/17 13:31:53;;;;;;;;;;;11.60;82.50;;;;;;5033007;28;20330;-72
2023/01/17 13:34:37;;;;;;;;;;;11.30;83.80;;;;;;5029528;28;19931;-72
2023/01/17 13:37:12;;;;;;;;;;;11.00;86.50;;;;;;5034169;28;19927;-73
2023/01/17 13:39:50;;;;;;;;;;;10.60;86.50;;;;;;5015419;28;20020;-74
2023/01/17 13:42:21;;;;;;;;;;;9.90;88.40;;;;;;5032458;28;19963;-74
2023/01/17 13:44:50;;;;;;;;;;;9.40;88.80;;;;;;5033416;28;19925;-73
2023/01/17 13:47:15;;;;;;;;;;;9.30;89.60;;;;;;5002705;28;20148;-72
2023/01/17 13:49:44;;;;;;;;;;;8.70;89.80;;;;;;4993029;28;20396;-73
2023/01/17 13:52:26;;;;;;;;;;;8.00;90.80;;;;;;4990930;28;19922;-72
2023/01/17 13:54:53;;;;;;;;;;;7.80;92.10;;;;;;4990116;28;20010;-73
2023/01/17 13:57:21;;;;;;;;;;;7.90;94.50;;;;;;4986055;28;19925;-71
2023/01/17 13:59:47;;;;;;;;;;;6.80;95.40;;;;;;4992239;28;20417;-76
2023/01/17 14:02:31;;;;;;;;;;;7.80;95.10;;;;;;4992674;28;20000;-76
2023/01/17 14:05:09;;;;;;;;;;;7.10;95.70;;;;;;4987136;28;19929;-70
2023/01/17 14:07:38;;;;;;;;;;;6.80;96.10;;;;;;4993131;28;20012;-73
2023/01/17 14:10:15;;;;;;;;;;;8.10;95.90;;;;;;4991278;28;19933;-71
2023/01/17 14:12:42;;;;;;;;;;;6.60;95.40;;;;;;4990861;28;19922;-72
2023/01/17 14:15:17;;;;;;;;;;;6.80;96.20;;;;;;4989729;28;19922;-71
2023/01/17 14:17:47;;;;;;;;;;;6.40;95.80;;;;;;4991833;28;19922;-71
2023/01/17 14:20:14;;;;;;;;;;;6.80;96.20;;;;;;4993880;28;19928;-78
2023/01/17 14:22:46;;;;;;;;;;;5.90;96.80;;;;;;4990532;28;19929;-78
2023/01/17 14:25:13;;;;;;;;;;;7.00;97.20;;;;;;4991642;28;19923;-74
2023/01/17 14:27:42;;;;;;;;;;;5.90;97.60;;;;;;4987534;28;20367;-73
2023/01/17 14:30:16;;;;;;;;;;;5.50;98.90;;;;;;4991170;28;20297;-75
2023/01/17 14:33:14;;;;;;;;;;;5.50;98.70;;;;;;4988321;28;19987;-82
2023/01/17 14:35:48;;;;;;;;;;;5.40;99.90;;;;;;4968402;28;19922;-74
2023/01/17 14:38:17;;;;;;;;;;;5.50;99.80;;;;;;4991601;28;19929;-80
2023/01/17 14:40:48;;;;;;;;;;;6.10;99.90;;;;;;4993637;28;20389;-75
2023/01/17 14:43:24;;;;;;;;;;;5.30;99.90;;;;;;4991068;28;19925;-75
2023/01/17 14:45:58;;;;;;;;;;;5.30;99.90;;;;;;4992415;28;20391;-84
2023/01/17 14:48:23;;;;;;;;;;;5.30;99.90;;;;;;4990308;28;19930;-74
2023/01/17 14:50:50;;;;;;;;;;;4.80;99.90;;;;;;4988509;28;19930;-74
2023/01/17 14:53:18;;;;;;;;;;;5.20;99.90;;;;;;4986759;28;20381;-73
2023/01/17 14:55:46;;;;;;;;;;;5.10;99.90;;;;;;4981370;28;19922;-72
2023/01/17 14:58:20;;;;;;;;;;;5.00;99.90;;;;;;4989814;28;19925;-71
2023/01/17 15:00:48;;;;;;;;;;;4.90;99.90;;;;;;4992571;28;19933;-72
2023/01/17 15:03:14;;;;;;;;;;;6.70;99.90;;;;;;4985104;28;19921;-72
2023/01/17 15:05:41;;;;;;;;;;;4.60;99.90;;;;;;4986062;28;20009;-71
2023/01/17 15:08:12;;;;;;;;;;;4.50;99.90;;;;;;4989443;28;19995;-72
2023/01/17 15:10:45;;;;;;;;;;;4.40;99.90;;;;;;4989383;28;19925;-73
2023/01/17 15:13:12;;;;;;;;;;;4.40;99.90;;;;;;4990209;28;19984;-73
2023/01/17 15:15:38;;;;;;;;;;;4.90;99.90;;;;;;4988133;28;20304;-71
2023/01/17 15:18:13;;;;;;;;;;;4.20;99.90;;;;;;4992158;28;20013;-71
2023/01/17 15:20:49;;;;;;;;;;;4.10;99.90;;;;;;4991866;28;19932;-73
2023/01/17 15:23:19;;;;;;;;;;;4.10;99.90;;;;;;4990648;28;19948;-76
2023/01/17 15:25:46;;;;;;;;;;;4.00;99.90;;;;;;4987770;28;19928;-71
2023/01/17 15:28:12;;;;;;;;;;;4.00;99.90;;;;;;4986928;28;19929;-75
2023/01/17 15:30:55;;;;;;;;;;;4.80;99.90;;;;;;4987764;28;20300;-72
2023/01/17 15:33:21;;;;;;;;;;;3.90;99.90;;;;;;4983184;28;19918;-75
2023/01/17 15:35:46;;;;;;;;;;;6.20;99.90;;;;;;4986394;28;19921;-80
2023/01/17 15:38:13;;;;;;;;;;;5.40;99.90;;;;;;4987955;28;20365;-83
2023/01/17 15:40:42;;;;;;;;;;;3.80;99.90;;;;;;4987555;28;19922;-81
2023/01/17 15:43:17;;;;;;;;;;;3.70;99.90;;;;;;4991834;28;19996;-87
2023/01/17 15:45:53;;;;;;;;;;;3.60;99.90;;;;;;4990875;28;19925;-77
2023/01/17 15:48:40;;;;;;;;;;;3.60;99.90;;;;;;5019355;28;19972;-72
2023/01/17 15:51:25;;;;;;;;;;;3.50;99.90;;;;;;5030524;28;19921;-72
2023/01/17 15:53:51;;;;;;;;;;;3.50;99.90;;;;;;5029121;28;19927;-72
2023/01/17 15:56:20;;;;;;;;;;;3.40;99.90;;;;;;5026886;28;20019;-73
2023/01/17 15:58:49;;;;;;;;;;;3.40;99.90;;;;;;5022528;28;19921;-73
2023/01/17 16:01:16;;;;;;;;;;;3.40;99.90;;;;;;5026549;28;19925;-73